createdAt,value
2022-10-30T00:00:49.471Z,100229.66
2022-10-30T00:03:37.880Z,100235.31
2022-10-30T00:06:26.246Z,100223.78
2022-10-30T00:09:16.175Z,100217.66
2022-10-30T00:12:05.185Z,100215.78
2022-10-30T00:14:53.539Z,100211.69
2022-10-30T00:17:41.894Z,100212.81
2022-10-30T00:20:30.322Z,100214.69
2022-10-30T00:23:18.775Z,100211.88
2022-10-30T00:26:08.659Z,100211.88
2022-10-30T00:28:57.364Z,100220.03
2022-10-30T00:31:45.735Z,100214.75
2022-10-30T00:34:34.101Z,100219.78
2022-10-30T00:37:22.497Z,100209.34
2022-10-30T00:40:14.855Z,100201.63
2022-10-30T00:43:04.623Z,100205.44
2022-10-30T00:45:53.030Z,100200.53
2022-10-30T00:48:41.419Z,100209.25
2022-10-30T00:51:30.047Z,100203.13
2022-10-30T00:54:19.021Z,100202.19
2022-10-30T00:57:07.497Z,100205.75
2022-10-30T00:59:57.351Z,100217.72
2022-10-30T01:02:45.897Z,100206.47
2022-10-30T01:05:34.349Z,100203.00
2022-10-30T01:08:22.805Z,100203.31
2022-10-30T01:11:11.230Z,100200.91
2022-10-30T01:14:03.535Z,100189.09
2022-10-30T01:17:03.777Z,100197.94
2022-10-30T01:19:57.991Z,100198.16
2022-10-30T01:22:55.156Z,100195.47
2022-10-30T01:25:52.384Z,100193.47
2022-10-30T01:29:01.154Z,100192.16
2022-10-30T01:31:58.912Z,100187.50
2022-10-30T01:34:59.210Z,100180.22
2022-10-30T01:37:53.447Z,100185.97
2022-10-30T01:40:41.905Z,100192.50
2022-10-30T01:43:30.469Z,100185.94
2022-10-30T01:46:37.567Z,100170.72
2022-10-30T01:49:49.905Z,100175.63
2022-10-30T01:52:43.172Z,100176.25
2022-10-30T01:55:36.347Z,100177.84
2022-10-30T01:58:28.341Z,100169.91
2022-10-30T02:01:18.576Z,100172.94
2022-10-30T02:04:08.525Z,100170.16
2022-10-30T02:06:58.301Z,100157.28
2022-10-30T02:09:47.556Z,100166.50
2022-10-30T02:12:37.037Z,100162.84
2022-10-30T02:15:25.449Z,100172.31
2022-10-30T02:18:15.591Z,100161.88
2022-10-30T02:21:06.511Z,100164.50
2022-10-30T02:23:54.987Z,100165.44
2022-10-30T02:26:43.378Z,100163.88
2022-10-30T02:29:31.784Z,100166.81
2022-10-30T02:32:20.664Z,100167.09
2022-10-30T02:35:10.035Z,100176.06
2022-10-30T02:38:00.248Z,100175.25
2022-10-30T02:40:48.854Z,100176.91
2022-10-30T02:43:37.215Z,100173.38
2022-10-30T02:46:26.248Z,100171.47
2022-10-30T02:49:14.636Z,100173.16
2022-10-30T02:52:03.116Z,100172.31
2022-10-30T02:54:52.865Z,100173.88
2022-10-30T02:57:41.408Z,100175.44
2022-10-30T03:00:29.907Z,100172.75
2022-10-30T03:03:21.421Z,100168.38
2022-10-30T03:06:15.471Z,100170.00
2022-10-30T03:09:03.914Z,100177.22
2022-10-30T03:11:53.949Z,100173.16
2022-10-30T03:14:45.159Z,100175.84
2022-10-30T03:17:33.643Z,100169.81
2022-10-30T03:20:22.149Z,100175.03
2022-10-30T03:23:10.558Z,100178.03
2022-10-30T03:26:00.052Z,100174.69
2022-10-30T03:28:50.250Z,100173.75
2022-10-30T03:31:38.609Z,100170.22
2022-10-30T03:34:32.334Z,100175.41
2022-10-30T03:37:22.811Z,100173.03
2022-10-30T03:40:12.843Z,100180.22
2022-10-30T03:43:01.659Z,100174.47
2022-10-30T03:45:53.027Z,100174.47
2022-10-30T03:48:41.434Z,100166.75
2022-10-30T03:51:30.868Z,100172.69
2022-10-30T03:54:19.786Z,100171.78
2022-10-30T03:57:08.178Z,100172.78
2022-10-30T04:00:10.828Z,100170.47
2022-10-30T04:03:17.881Z,100175.16
2022-10-30T04:06:06.897Z,100167.91
2022-10-30T04:08:55.968Z,100172.31
2022-10-30T04:11:45.512Z,100166.34
2022-10-30T04:14:33.896Z,100170.16
2022-10-30T04:17:22.302Z,100173.38
2022-10-30T04:20:12.612Z,100173.75
2022-10-30T04:23:03.803Z,100171.00
2022-10-30T04:25:52.783Z,100180.34
2022-10-30T04:28:41.183Z,100180.00
2022-10-30T04:31:29.763Z,100182.97
2022-10-30T04:34:18.154Z,100173.78
2022-10-30T04:37:07.991Z,100176.69
2022-10-30T04:39:57.810Z,100194.34
2022-10-30T04:42:48.731Z,100189.53
2022-10-30T04:45:37.415Z,100195.09
2022-10-30T04:48:27.294Z,100185.88
2022-10-30T04:51:16.048Z,100179.19
2022-10-30T04:54:07.301Z,100179.34
2022-10-30T04:56:56.872Z,100192.38
2022-10-30T04:59:45.928Z,100187.28
2022-10-30T05:02:36.100Z,100178.81
2022-10-30T05:05:24.859Z,100181.88
2022-10-30T05:08:13.220Z,100178.34
2022-10-30T05:11:04.991Z,100184.41
2022-10-30T05:13:53.495Z,100182.72
2022-10-30T05:16:41.865Z,100178.53
2022-10-30T05:19:30.276Z,100173.31
2022-10-30T05:22:19.047Z,100174.97
2022-10-30T05:25:08.679Z,100174.16
2022-10-30T05:28:02.261Z,100176.13
2022-10-30T05:30:53.873Z,100175.53
2022-10-30T05:34:11.199Z,100167.84
2022-10-30T05:37:01.625Z,100175.53
2022-10-30T05:39:50.043Z,100182.44
2022-10-30T05:42:47.603Z,100172.94
2022-10-30T05:45:37.886Z,100184.47
2022-10-30T05:48:28.498Z,100179.81
2022-10-30T05:51:17.064Z,100178.44
2022-10-30T05:54:11.943Z,100174.34
2022-10-30T05:57:10.996Z,100172.94
2022-10-30T06:00:01.324Z,100169.69
2022-10-30T06:02:51.277Z,100175.06
2022-10-30T06:05:19.529Z,100175.91
2022-10-30T06:07:47.879Z,100186.31
2022-10-30T06:10:16.609Z,100181.13
2022-10-30T06:13:04.784Z,100181.88
2022-10-30T06:15:39.864Z,100187.63
2022-10-30T06:18:09.549Z,100195.97
2022-10-30T06:20:43.306Z,100190.50
2022-10-30T06:23:26.957Z,100193.56
2022-10-30T06:26:08.674Z,100191.56
2022-10-30T06:28:42.798Z,100193.13
2022-10-30T06:31:12.947Z,100201.75
2022-10-30T06:33:42.531Z,100205.13
2022-10-30T06:36:11.361Z,100198.88
2022-10-30T06:38:40.152Z,100201.28
2022-10-30T06:41:09.142Z,100200.19
2022-10-30T06:43:55.844Z,100212.16
2022-10-30T06:46:29.043Z,100206.78
2022-10-30T06:49:02.330Z,100206.63
2022-10-30T06:51:31.975Z,100212.56
2022-10-30T06:54:01.351Z,100215.94
2022-10-30T06:56:41.711Z,100209.91
2022-10-30T06:59:16.019Z,100208.13
2022-10-30T07:01:55.776Z,100206.34
2022-10-30T07:04:29.433Z,100206.47
2022-10-30T07:07:00.194Z,100204.03
2022-10-30T07:09:28.391Z,100206.63
2022-10-30T07:11:57.306Z,100202.38
2022-10-30T07:14:25.920Z,100210.91
2022-10-30T07:16:59.313Z,100209.41
2022-10-30T07:19:30.218Z,100200.66
2022-10-30T07:21:59.054Z,100210.06
2022-10-30T07:24:27.214Z,100204.06
2022-10-30T07:27:13.918Z,100204.00
2022-10-30T07:29:46.421Z,100199.97
2022-10-30T07:32:23.211Z,100195.97
2022-10-30T07:34:55.575Z,100197.75
2022-10-30T07:37:43.209Z,100202.50
2022-10-30T07:40:15.696Z,100193.28
2022-10-30T07:42:57.768Z,100203.94
2022-10-30T07:45:49.096Z,100194.31
2022-10-30T07:48:17.131Z,100201.22
2022-10-30T07:50:58.812Z,100204.19
2022-10-30T07:53:28.110Z,100206.53
2022-10-30T07:55:57.241Z,100203.75
2022-10-30T07:58:45.739Z,100205.59
2022-10-30T08:01:35.274Z,100206.72
2022-10-30T08:04:17.631Z,100205.66
2022-10-30T08:06:47.164Z,100208.41
2022-10-30T08:09:15.316Z,100204.28
2022-10-30T08:11:43.415Z,100205.31
2022-10-30T08:14:11.632Z,100206.91
2022-10-30T08:16:39.752Z,100204.28
2022-10-30T08:19:09.581Z,100204.91
2022-10-30T08:21:37.734Z,100203.19
2022-10-30T08:24:11.562Z,100200.31
2022-10-30T08:26:42.798Z,100204.34
2022-10-30T08:29:12.675Z,100216.66
2022-10-30T08:31:41.678Z,100218.56
2022-10-30T08:34:38.718Z,100221.31
2022-10-30T08:37:08.740Z,100219.09
2022-10-30T08:39:38.752Z,100219.13
2022-10-30T08:42:27.170Z,100218.69
2022-10-30T08:44:57.465Z,100215.19
2022-10-30T08:47:44.518Z,100211.38
2022-10-30T08:50:12.790Z,100212.00
2022-10-30T08:52:40.916Z,100205.72
2022-10-30T08:55:10.953Z,100212.91
2022-10-30T08:57:39.197Z,100211.38
2022-10-30T09:00:11.174Z,100215.00
2022-10-30T09:03:03.069Z,100212.06
2022-10-30T09:05:50.364Z,100211.75
2022-10-30T09:08:18.525Z,100202.84
2022-10-30T09:11:07.261Z,100195.41
2022-10-30T09:13:35.650Z,100195.59
2022-10-30T09:16:06.027Z,100191.03
2022-10-30T09:18:36.839Z,100187.81
2022-10-30T09:21:06.479Z,100186.13
2022-10-30T09:23:40.164Z,100182.69
2022-10-30T09:26:28.206Z,100186.56
2022-10-30T09:29:15.345Z,100187.38
2022-10-30T09:32:01.638Z,100184.16
2022-10-30T09:34:32.579Z,100180.31
2022-10-30T09:37:23.126Z,100182.81
2022-10-30T09:39:54.669Z,100188.34
2022-10-30T09:42:42.515Z,100188.88
2022-10-30T09:45:30.539Z,100177.94
2022-10-30T09:48:19.683Z,100181.59
2022-10-30T09:51:02.040Z,100183.50
2022-10-30T09:53:34.767Z,100193.00
2022-10-30T09:56:13.242Z,100194.19
2022-10-30T09:58:50.346Z,100197.94
2022-10-30T10:01:21.205Z,100199.09
2022-10-30T10:04:02.551Z,100207.94
2022-10-30T10:06:51.668Z,100208.91
2022-10-30T10:09:34.927Z,100225.22
2022-10-30T10:12:33.494Z,100210.69
2022-10-30T10:15:06.909Z,100207.34
2022-10-30T10:17:36.786Z,100209.81
2022-10-30T10:20:06.189Z,100212.13
2022-10-30T10:22:39.541Z,100203.31
2022-10-30T10:25:10.608Z,100198.47
2022-10-30T10:27:50.307Z,100197.66
2022-10-30T10:30:21.219Z,100199.94
2022-10-30T10:33:24.578Z,100195.91
2022-10-30T10:36:04.988Z,100192.78
2022-10-30T10:38:48.585Z,100191.09
2022-10-30T10:41:21.566Z,100189.06
2022-10-30T10:44:13.437Z,100193.44
2022-10-30T10:47:06.770Z,100188.19
2022-10-30T10:49:52.526Z,100184.22
2022-10-30T10:52:22.781Z,100196.81
2022-10-30T10:54:53.190Z,100186.22
2022-10-30T10:57:27.318Z,100184.25
2022-10-30T10:59:57.370Z,100190.84
2022-10-30T11:02:32.405Z,100186.00
2022-10-30T11:05:06.650Z,100187.19
2022-10-30T11:07:38.140Z,100188.41
2022-10-30T11:10:13.601Z,100181.78
2022-10-30T11:12:41.813Z,100181.78
2022-10-30T11:15:24.391Z,100183.13
2022-10-30T11:18:00.326Z,100193.84
2022-10-30T11:20:33.375Z,100186.03
2022-10-30T11:23:01.738Z,100188.00
2022-10-30T11:25:35.468Z,100186.22
2022-10-30T11:28:05.591Z,100166.63
2022-10-30T11:30:33.817Z,100168.16
2022-10-30T11:33:23.082Z,100167.78
2022-10-30T11:35:51.220Z,100173.78
2022-10-30T11:38:20.831Z,100166.50
2022-10-30T11:40:49.996Z,100165.84
2022-10-30T11:43:21.158Z,100173.09
2022-10-30T11:45:49.317Z,100165.97
2022-10-30T11:48:23.227Z,100166.09
2022-10-30T11:50:51.539Z,100158.94
2022-10-30T11:53:23.695Z,100161.09
2022-10-30T11:55:51.826Z,100150.72
2022-10-30T11:58:25.084Z,100154.19
2022-10-30T12:01:02.110Z,100154.81
2022-10-30T12:03:37.277Z,100157.53
2022-10-30T12:06:10.254Z,100147.19
2022-10-30T12:08:38.337Z,100146.53
2022-10-30T12:11:06.806Z,100146.75
2022-10-30T12:13:39.386Z,100146.22
2022-10-30T12:16:15.181Z,100140.69
2022-10-30T12:18:54.396Z,100147.97
2022-10-30T12:21:22.505Z,100147.44
2022-10-30T12:23:53.398Z,100146.38
2022-10-30T12:26:21.536Z,100141.03
2022-10-30T12:28:52.995Z,100137.16
2022-10-30T12:31:23.458Z,100126.81
2022-10-30T12:33:58.410Z,100133.06
2022-10-30T12:36:28.171Z,100123.28
2022-10-30T12:38:58.847Z,100131.16
2022-10-30T12:41:28.338Z,100128.88
2022-10-30T12:44:00.507Z,100122.19
2022-10-30T12:46:34.304Z,100127.13
2022-10-30T12:49:11.780Z,100122.28
2022-10-30T12:51:43.550Z,100118.44
2022-10-30T12:54:18.906Z,100113.13
2022-10-30T12:56:48.926Z,100115.88
2022-10-30T12:59:32.053Z,100111.94
2022-10-30T13:02:03.013Z,100112.84
2022-10-30T13:04:36.986Z,100109.69
2022-10-30T13:07:09.583Z,100102.28
2022-10-30T13:09:40.118Z,100113.22
2022-10-30T13:12:10.611Z,100112.84
2022-10-30T13:14:42.979Z,100114.63
2022-10-30T13:17:12.680Z,100107.13
2022-10-30T13:19:43.112Z,100098.91
2022-10-30T13:22:16.698Z,100103.72
2022-10-30T13:24:50.771Z,100102.34
2022-10-30T13:27:22.412Z,100099.72
2022-10-30T13:29:53.683Z,100100.41
2022-10-30T13:32:31.135Z,100099.94
2022-10-30T13:35:07.160Z,100098.34
2022-10-30T13:37:37.685Z,100102.03
2022-10-30T13:40:15.004Z,100106.75
2022-10-30T13:42:52.197Z,100098.09
2022-10-30T13:45:40.559Z,100105.44
2022-10-30T13:48:29.447Z,100096.50
2022-10-30T13:51:31.376Z,100109.81
2022-10-30T13:54:11.506Z,100087.59
2022-10-30T13:56:39.766Z,100091.25
2022-10-30T13:59:21.098Z,100099.56
2022-10-30T14:01:57.487Z,100081.97
2022-10-30T14:04:33.605Z,100088.91
2022-10-30T14:07:17.583Z,100092.22
2022-10-30T14:09:53.851Z,100091.41
2022-10-30T14:12:45.772Z,100101.56
2022-10-30T14:15:22.087Z,100106.50
2022-10-30T14:18:32.228Z,100102.84
2022-10-30T14:21:00.990Z,100100.88
2022-10-30T14:23:33.281Z,100105.53
2022-10-30T14:26:15.378Z,100098.56
2022-10-30T14:28:45.079Z,100104.38
2022-10-30T14:31:14.072Z,100111.50
2022-10-30T14:33:51.876Z,100106.31
2022-10-30T14:36:23.430Z,100099.97
2022-10-30T14:39:02.757Z,100117.47
2022-10-30T14:41:45.375Z,100118.38
2022-10-30T14:44:51.975Z,100111.31
2022-10-30T14:47:53.366Z,100116.22
2022-10-30T14:50:32.042Z,100115.19
2022-10-30T14:53:23.389Z,100101.25
2022-10-30T14:56:02.583Z,100106.63
2022-10-30T14:58:32.660Z,100106.81
2022-10-30T15:01:31.936Z,100102.81
2022-10-30T15:04:21.788Z,100102.06
2022-10-30T15:06:59.177Z,100097.66
2022-10-30T15:09:45.829Z,100097.25
2022-10-30T15:14:58.032Z,100100.72
2022-10-30T15:17:30.222Z,100103.19
2022-10-30T15:19:58.855Z,100098.63
2022-10-30T15:22:27.602Z,100097.09
2022-10-30T15:24:55.695Z,100100.16
2022-10-30T15:27:25.390Z,100103.06
2022-10-30T15:29:55.980Z,100106.66
2022-10-30T15:32:25.072Z,100100.16
2022-10-30T15:34:59.930Z,100102.53
2022-10-30T15:37:28.282Z,100103.06
2022-10-30T15:40:17.291Z,100103.03
2022-10-30T15:42:47.606Z,100105.88
2022-10-30T15:45:20.209Z,100111.91
2022-10-30T15:47:49.806Z,100104.09
2022-10-30T15:50:19.931Z,100097.63
2022-10-30T15:52:48.041Z,100108.25
2022-10-30T15:55:17.948Z,100111.53
2022-10-30T15:58:02.778Z,100108.28
2022-10-30T16:00:33.368Z,100106.38
2022-10-30T16:03:06.247Z,100109.47
2022-10-30T16:05:34.816Z,100097.84
2022-10-30T16:08:03.951Z,100091.72
2022-10-30T16:10:34.249Z,100107.06
2022-10-30T16:13:04.166Z,100104.00
2022-10-30T16:15:34.012Z,100110.47
2022-10-30T16:18:16.164Z,100111.69
2022-10-30T16:20:45.871Z,100103.13
2022-10-30T16:23:14.043Z,100113.47
2022-10-30T16:25:47.047Z,100109.78
2022-10-30T16:28:30.950Z,100123.59
2022-10-30T16:31:01.587Z,100126.81
2022-10-30T16:33:30.659Z,100120.25
2022-10-30T16:35:58.734Z,100121.66
2022-10-30T16:38:30.191Z,100122.13
2022-10-30T16:40:58.341Z,100120.81
2022-10-30T16:43:30.059Z,100122.09
2022-10-30T16:45:59.038Z,100127.66
2022-10-30T16:48:28.656Z,100126.94
2022-10-30T16:51:01.425Z,100133.16
2022-10-30T16:53:29.581Z,100134.22
2022-10-30T16:55:59.143Z,100125.84
2022-10-30T16:58:30.730Z,100129.66
2022-10-30T17:01:04.593Z,100135.94
2022-10-30T17:03:37.471Z,100142.25
2022-10-30T17:06:07.328Z,100144.97
2022-10-30T17:08:41.799Z,100145.81
2022-10-30T17:11:18.487Z,100150.69
2022-10-30T17:14:02.055Z,100148.41
2022-10-30T17:16:31.204Z,100168.94
2022-10-30T17:19:00.430Z,100162.25
2022-10-30T17:21:30.749Z,100176.50
2022-10-30T17:24:00.324Z,100182.78
2022-10-30T17:26:28.866Z,100189.91
2022-10-30T17:28:56.947Z,100202.16
2022-10-30T17:31:31.430Z,100202.97
2022-10-30T17:34:20.968Z,100201.88
2022-10-30T17:36:49.577Z,100207.41
2022-10-30T17:39:17.627Z,100212.66
2022-10-30T17:41:46.086Z,100214.84
2022-10-30T17:44:19.272Z,100214.88
2022-10-30T17:46:50.930Z,100219.28
2022-10-30T17:49:26.044Z,100218.47
2022-10-30T17:51:54.329Z,100230.19
2022-10-30T17:54:22.535Z,100223.84
2022-10-30T17:56:50.650Z,100229.88
2022-10-30T17:59:18.831Z,100231.47
2022-10-30T18:01:48.982Z,100232.09
2022-10-30T18:04:20.771Z,100224.56
2022-10-30T18:06:49.482Z,100241.44
2022-10-30T18:09:17.711Z,100242.28
2022-10-30T18:11:45.824Z,100239.75
2022-10-30T18:14:13.921Z,100239.41
2022-10-30T18:16:41.986Z,100245.88
2022-10-30T18:19:12.520Z,100240.13
2022-10-30T18:21:40.641Z,100245.53
2022-10-30T18:24:12.985Z,100239.06
2022-10-30T18:26:41.236Z,100253.22
2022-10-30T18:29:09.324Z,100254.34
2022-10-30T18:31:37.531Z,100255.59
2022-10-30T18:34:05.676Z,100260.28
2022-10-30T18:36:35.129Z,100259.88
2022-10-30T18:39:03.241Z,100258.41
2022-10-30T18:41:33.298Z,100259.34
2022-10-30T18:44:01.481Z,100264.72
2022-10-30T18:46:29.603Z,100260.66
2022-10-30T18:48:58.167Z,100270.63
2022-10-30T18:51:27.635Z,100273.44
2022-10-30T18:53:57.347Z,100283.03
2022-10-30T18:56:26.575Z,100288.03
2022-10-30T18:58:58.748Z,100287.84
2022-10-30T19:01:31.017Z,100278.34
2022-10-30T19:04:00.800Z,100282.00
2022-10-30T19:06:29.065Z,100284.88
2022-10-30T19:08:58.580Z,100280.78
2022-10-30T19:11:28.271Z,100280.03
2022-10-30T19:13:58.451Z,100282.47
2022-10-30T19:16:26.539Z,100283.41
2022-10-30T19:18:54.729Z,100285.63
2022-10-30T19:21:25.276Z,100281.72
2022-10-30T19:23:53.452Z,100276.91
2022-10-30T19:26:22.880Z,100278.13
2022-10-30T19:28:50.958Z,100289.66
2022-10-30T19:31:20.025Z,100286.13
2022-10-30T19:33:52.910Z,100290.69
2022-10-30T19:36:29.991Z,100291.88
2022-10-30T19:38:58.641Z,100294.59
2022-10-30T19:44:01.986Z,100293.38
2022-10-30T19:46:30.153Z,100291.88
2022-10-30T19:48:59.502Z,100291.31
2022-10-30T19:51:28.740Z,100295.50
2022-10-30T19:53:57.066Z,100314.66
2022-10-30T19:56:25.231Z,100310.38
2022-10-30T19:58:54.662Z,100305.94
2022-10-30T20:01:22.852Z,100300.53
2022-10-30T20:03:51.083Z,100302.22
2022-10-30T20:06:21.339Z,100304.16
2022-10-30T20:08:49.562Z,100302.09
2022-10-30T20:11:17.688Z,100303.44
2022-10-30T20:13:47.228Z,100301.03
2022-10-30T20:16:18.891Z,100303.63
2022-10-30T20:18:47.011Z,100306.25
2022-10-30T20:21:15.104Z,100309.41
2022-10-30T20:23:43.239Z,100311.91
2022-10-30T20:26:19.833Z,100308.84
2022-10-30T20:28:47.929Z,100310.03
2022-10-30T20:31:16.059Z,100313.72
2022-10-30T20:33:45.574Z,100318.94
2022-10-30T20:36:13.953Z,100318.66
2022-10-30T20:38:42.238Z,100317.91
2022-10-30T20:41:20.909Z,100322.38
2022-10-30T20:43:49.919Z,100319.13
2022-10-30T20:46:18.171Z,100320.03
2022-10-30T20:48:47.625Z,100330.28
2022-10-30T20:51:15.750Z,100327.00
2022-10-30T20:53:43.867Z,100322.00
2022-10-30T20:56:12.207Z,100335.06
2022-10-30T20:58:40.315Z,100328.28
2022-10-30T21:01:08.483Z,100329.13
2022-10-30T21:04:01.455Z,100332.94
2022-10-30T21:06:50.330Z,100340.31
2022-10-30T21:09:38.668Z,100337.81
2022-10-30T21:12:27.133Z,100335.31
2022-10-30T21:15:15.521Z,100343.13
2022-10-30T21:18:03.864Z,100335.47
2022-10-30T21:20:53.581Z,100344.53
2022-10-30T21:23:41.952Z,100341.88
2022-10-30T21:26:30.301Z,100341.94
2022-10-30T21:29:18.674Z,100346.25
2022-10-30T21:32:07.387Z,100347.91
2022-10-30T21:34:55.707Z,100344.53
2022-10-30T21:37:45.372Z,100344.88
2022-10-30T21:40:33.758Z,100350.44
2022-10-30T21:43:22.123Z,100346.16
2022-10-30T21:46:11.840Z,100346.22
2022-10-30T21:49:03.881Z,100334.34
2022-10-30T21:51:52.279Z,100340.38
2022-10-30T21:54:42.499Z,100341.13
2022-10-30T21:57:30.857Z,100342.16
2022-10-30T22:00:19.536Z,100336.19
2022-10-30T22:03:07.900Z,100333.75
2022-10-30T22:05:56.248Z,100340.72
2022-10-30T22:08:46.437Z,100332.16
2022-10-30T22:11:36.214Z,100339.31
2022-10-30T22:14:24.690Z,100341.22
2022-10-30T22:17:13.673Z,100349.09
2022-10-30T22:20:02.063Z,100344.84
2022-10-30T22:22:50.414Z,100346.59
2022-10-30T22:25:38.766Z,100344.00
2022-10-30T22:28:28.662Z,100352.63
2022-10-30T22:31:18.417Z,100342.31
2022-10-30T22:34:06.828Z,100353.66
2022-10-30T22:36:55.207Z,100345.22
2022-10-30T22:39:44.030Z,100348.88
2022-10-30T22:42:32.396Z,100342.34
2022-10-30T22:45:22.136Z,100345.38
2022-10-30T22:48:10.582Z,100343.94
2022-10-30T22:50:59.257Z,100343.59
2022-10-30T22:53:48.265Z,100344.84
2022-10-30T22:56:37.527Z,100350.38
2022-10-30T22:59:26.058Z,100347.25
2022-10-30T23:02:15.748Z,100338.78
2022-10-30T23:05:04.301Z,100342.47
2022-10-30T23:07:53.297Z,100346.81
2022-10-30T23:10:41.672Z,100352.00
2022-10-30T23:13:30.016Z,100337.44
2022-10-30T23:16:20.186Z,100338.34
2022-10-30T23:19:10.872Z,100332.47
2022-10-30T23:21:59.713Z,100325.63
2022-10-30T23:24:49.250Z,100329.19
2022-10-30T23:27:37.615Z,100335.31
2022-10-30T23:30:25.944Z,100337.06
2022-10-30T23:33:14.256Z,100338.75
2022-10-30T23:36:04.935Z,100334.38
2022-10-30T23:38:53.744Z,100328.34
2022-10-30T23:41:42.105Z,100335.38
2022-10-30T23:44:30.488Z,100337.97
2022-10-30T23:47:18.822Z,100337.06
2022-10-30T23:50:07.803Z,100344.09
2022-10-30T23:52:57.479Z,100344.34
2022-10-30T23:55:51.787Z,100341.88
2022-10-30T23:58:40.141Z,100337.78
